sensor_id;sensor_type;location;lat;lon;timestamp;pressure;altitude;pressure_sealevel;temperature;humidity
6208;BME280;3137;51.550;7.060;2023-04-16T00:01:10;101435.75;;;7.48;95.13
6208;BME280;3137;51.550;7.060;2023-04-16T00:03:37;101446.28;;;7.51;95.26
6208;BME280;3137;51.550;7.060;2023-04-16T00:06:04;101446.38;;;7.50;95.50
6208;BME280;3137;51.550;7.060;2023-04-16T00:08:30;101434.91;;;7.48;95.08
6208;BME280;3137;51.550;7.060;2023-04-16T00:10:57;101436.56;;;7.50;95.66
6208;BME280;3137;51.550;7.060;2023-04-16T00:13:23;101446.22;;;7.53;95.03
6208;BME280;3137;51.550;7.060;2023-04-16T00:15:51;101443.69;;;7.50;95.08
6208;BME280;3137;51.550;7.060;2023-04-16T00:18:17;101442.69;;;7.52;94.77
6208;BME280;3137;51.550;7.060;2023-04-16T00:20:44;101447.22;;;7.50;95.46
6208;BME280;3137;51.550;7.060;2023-04-16T00:23:11;101448.94;;;7.51;95.16
6208;BME280;3137;51.550;7.060;2023-04-16T00:25:37;101444.41;;;7.53;95.28
6208;BME280;3137;51.550;7.060;2023-04-16T00:28:04;101447.28;;;7.49;95.08
6208;BME280;3137;51.550;7.060;2023-04-16T00:30:30;101441.16;;;7.46;95.06
6208;BME280;3137;51.550;7.060;2023-04-16T00:32:57;101446.38;;;7.50;95.50
6208;BME280;3137;51.550;7.060;2023-04-16T00:35:23;101447.22;;;7.50;95.02
6208;BME280;3137;51.550;7.060;2023-04-16T00:37:49;101448.28;;;7.46;95.12
6208;BME280;3137;51.550;7.060;2023-04-16T00:40:16;101453.63;;;7.46;95.24
6208;BME280;3137;51.550;7.060;2023-04-16T00:42:42;101453.41;;;7.51;95.17
6208;BME280;3137;51.550;7.060;2023-04-16T00:45:09;101449.88;;;7.50;95.38
6208;BME280;3137;51.550;7.060;2023-04-16T00:47:37;101452.47;;;7.52;94.99
6208;BME280;3137;51.550;7.060;2023-04-16T00:50:03;101453.34;;;7.52;95.30
6208;BME280;3137;51.550;7.060;2023-04-16T00:52:33;101448.13;;;7.49;95.32
6208;BME280;3137;51.550;7.060;2023-04-16T00:54:59;101457.16;;;7.46;95.63
6208;BME280;3137;51.550;7.060;2023-04-16T00:57:26;101449.09;;;7.48;95.37
6208;BME280;3137;51.550;7.060;2023-04-16T00:59:53;101454.38;;;7.50;95.42
6208;BME280;3137;51.550;7.060;2023-04-16T01:02:19;101448.22;;;7.48;95.63
6208;BME280;3137;51.550;7.060;2023-04-16T01:04:49;101453.25;;;7.54;95.56
6208;BME280;3137;51.550;7.060;2023-04-16T01:07:16;101456.72;;;7.56;95.31
6208;BME280;3137;51.550;7.060;2023-04-16T01:09:42;101455.81;;;7.57;95.64
6208;BME280;3137;51.550;7.060;2023-04-16T01:12:09;101451.69;;;7.50;95.41
6208;BME280;3137;51.550;7.060;2023-04-16T01:14:35;101456.81;;;7.54;95.77
6208;BME280;3137;51.550;7.060;2023-04-16T01:17:02;101461.13;;;7.57;95.58
6208;BME280;3137;51.550;7.060;2023-04-16T01:19:29;101464.81;;;7.54;95.35
6208;BME280;3137;51.550;7.060;2023-04-16T01:22:02;101460.25;;;7.56;95.40
6208;BME280;3137;51.550;7.060;2023-04-16T01:24:29;101463.84;;;7.55;95.54
6208;BME280;3137;51.550;7.060;2023-04-16T01:26:58;101460.25;;;7.56;95.23
6208;BME280;3137;51.550;7.060;2023-04-16T01:29:25;101467.22;;;7.59;95.32
6208;BME280;3137;51.550;7.060;2023-04-16T01:31:53;101471.69;;;7.58;95.66
6208;BME280;3137;51.550;7.060;2023-04-16T01:34:34;101463.59;;;7.61;95.63
6208;BME280;3137;51.550;7.060;2023-04-16T01:37:02;101463.59;;;7.61;95.91
6208;BME280;3137;51.550;7.060;2023-04-16T01:39:28;101467.16;;;7.60;95.45
6208;BME280;3137;51.550;7.060;2023-04-16T01:41:56;101469.84;;;7.60;95.06
6208;BME280;3137;51.550;7.060;2023-04-16T01:44:22;101469.56;;;7.66;95.02
6208;BME280;3137;51.550;7.060;2023-04-16T01:46:49;101474.88;;;7.66;95.41
6208;BME280;3137;51.550;7.060;2023-04-16T01:49:15;101478.34;;;7.69;95.23
6208;BME280;3137;51.550;7.060;2023-04-16T01:51:42;101473.78;;;7.71;94.87
6208;BME280;3137;51.550;7.060;2023-04-16T01:54:09;101473.66;;;7.74;95.39
6208;BME280;3137;51.550;7.060;2023-04-16T01:56:35;101469.19;;;7.74;94.90
6208;BME280;3137;51.550;7.060;2023-04-16T01:59:01;101467.09;;;7.81;94.82
6208;BME280;3137;51.550;7.060;2023-04-16T02:01:33;101472.47;;;7.79;95.25
6208;BME280;3137;51.550;7.060;2023-04-16T02:04:01;101474.34;;;7.77;94.49
6208;BME280;3137;51.550;7.060;2023-04-16T02:06:27;101468.75;;;7.83;94.81
6208;BME280;3137;51.550;7.060;2023-04-16T02:08:54;101474.13;;;7.82;94.62
6208;BME280;3137;51.550;7.060;2023-04-16T02:11:20;101473.56;;;7.75;94.56
6208;BME280;3137;51.550;7.060;2023-04-16T02:13:48;101474.06;;;7.83;94.36
6208;BME280;3137;51.550;7.060;2023-04-16T02:16:16;101468.88;;;7.80;94.62
6208;BME280;3137;51.550;7.060;2023-04-16T02:18:47;101472.25;;;7.84;94.31
6208;BME280;3137;51.550;7.060;2023-04-16T02:21:15;101469.59;;;7.84;94.60
6208;BME280;3137;51.550;7.060;2023-04-16T02:23:42;101474.63;;;7.90;93.94
6208;BME280;3137;51.550;7.060;2023-04-16T02:26:12;101463.94;;;7.90;94.49
6208;BME280;3137;51.550;7.060;2023-04-16T02:28:39;101479.72;;;7.95;93.85
6208;BME280;3137;51.550;7.060;2023-04-16T02:31:07;101479.94;;;7.90;94.00
6208;BME280;3137;51.550;7.060;2023-04-16T02:33:39;101470.00;;;7.94;94.02
6208;BME280;3137;51.550;7.060;2023-04-16T02:36:06;101477.00;;;7.96;93.73
6208;BME280;3137;51.550;7.060;2023-04-16T02:38:33;101477.84;;;7.97;93.45
6208;BME280;3137;51.550;7.060;2023-04-16T02:40:59;101476.19;;;7.94;93.78
6208;BME280;3137;51.550;7.060;2023-04-16T02:43:27;101473.63;;;7.93;94.07
6208;BME280;3137;51.550;7.060;2023-04-16T02:45:53;101474.50;;;7.93;93.67
6208;BME280;3137;51.550;7.060;2023-04-16T02:48:19;101477.06;;;7.95;93.28
6208;BME280;3137;51.550;7.060;2023-04-16T02:50:46;101482.63;;;7.90;93.69
6208;BME280;3137;51.550;7.060;2023-04-16T02:53:12;101484.44;;;7.89;93.88
6208;BME280;3137;51.550;7.060;2023-04-16T02:55:38;101484.38;;;7.91;93.53
6208;BME280;3137;51.550;7.060;2023-04-16T02:58:05;101481.53;;;7.94;94.00
6208;BME280;3137;51.550;7.060;2023-04-16T03:00:31;101482.56;;;7.92;94.11
6208;BME280;3137;51.550;7.060;2023-04-16T03:02:58;101490.41;;;7.95;94.06
6208;BME280;3137;51.550;7.060;2023-04-16T03:05:24;101487.03;;;7.91;93.71
6208;BME280;3137;51.550;7.060;2023-04-16T03:07:50;101486.00;;;7.94;94.13
6208;BME280;3137;51.550;7.060;2023-04-16T03:10:21;101477.78;;;7.98;93.75
6208;BME280;3137;51.550;7.060;2023-04-16T03:12:48;101482.34;;;7.96;93.89
6208;BME280;3137;51.550;7.060;2023-04-16T03:15:15;101475.34;;;7.94;94.06
6208;BME280;3137;51.550;7.060;2023-04-16T03:17:41;101480.69;;;7.94;93.46
6208;BME280;3137;51.550;7.060;2023-04-16T03:20:08;101480.69;;;7.94;93.42
6208;BME280;3137;51.550;7.060;2023-04-16T03:22:35;101486.66;;;7.99;93.91
6208;BME280;3137;51.550;7.060;2023-04-16T03:25:01;101488.41;;;8.00;93.96
6208;BME280;3137;51.550;7.060;2023-04-16T03:27:29;101490.13;;;8.01;93.27
6208;BME280;3137;51.550;7.060;2023-04-16T03:29:56;101494.72;;;7.97;93.73
6208;BME280;3137;51.550;7.060;2023-04-16T03:32:23;101494.72;;;7.97;94.09
6208;BME280;3137;51.550;7.060;2023-04-16T03:34:49;101496.53;;;7.97;94.28
6208;BME280;3137;51.550;7.060;2023-04-16T03:37:16;101500.94;;;7.98;93.40
6208;BME280;3137;51.550;7.060;2023-04-16T03:39:42;101503.50;;;7.99;93.61
6208;BME280;3137;51.550;7.060;2023-04-16T03:42:10;101496.53;;;7.97;93.74
6208;BME280;3137;51.550;7.060;2023-04-16T03:44:36;101498.97;;;8.01;93.47
6208;BME280;3137;51.550;7.060;2023-04-16T03:47:02;101501.47;;;8.04;93.40
6208;BME280;3137;51.550;7.060;2023-04-16T03:49:29;101503.22;;;8.05;93.41
6208;BME280;3137;51.550;7.060;2023-04-16T03:51:56;101497.94;;;8.04;93.12
6208;BME280;3137;51.550;7.060;2023-04-16T03:54:24;101498.59;;;8.09;93.71
6208;BME280;3137;51.550;7.060;2023-04-16T03:56:59;101506.81;;;8.04;93.24
6208;BME280;3137;51.550;7.060;2023-04-16T03:59:26;101502.38;;;8.05;93.62
6208;BME280;3137;51.550;7.060;2023-04-16T04:01:52;101504.81;;;8.09;93.38
6208;BME280;3137;51.550;7.060;2023-04-16T04:04:20;101504.94;;;8.06;93.13
6208;BME280;3137;51.550;7.060;2023-04-16T04:06:46;101506.53;;;8.10;93.67
6208;BME280;3137;51.550;7.060;2023-04-16T04:09:13;101504.81;;;8.09;93.15
6208;BME280;3137;51.550;7.060;2023-04-16T04:11:41;101506.69;;;8.07;93.40
6208;BME280;3137;51.550;7.060;2023-04-16T04:14:08;101514.69;;;8.07;93.48
6208;BME280;3137;51.550;7.060;2023-04-16T04:16:34;101511.88;;;8.10;93.32
6208;BME280;3137;51.550;7.060;2023-04-16T04:19:01;101516.03;;;8.16;93.34
6208;BME280;3137;51.550;7.060;2023-04-16T04:21:28;101510.78;;;8.15;93.69
6208;BME280;3137;51.550;7.060;2023-04-16T04:23:54;101519.72;;;8.14;93.51
6208;BME280;3137;51.550;7.060;2023-04-16T04:26:21;101522.25;;;8.17;93.40
6208;BME280;3137;51.550;7.060;2023-04-16T04:28:48;101518.63;;;8.18;93.29
6208;BME280;3137;51.550;7.060;2023-04-16T04:31:16;101524.91;;;8.17;93.37
6208;BME280;3137;51.550;7.060;2023-04-16T04:33:43;101527.59;;;8.17;92.93
6208;BME280;3137;51.550;7.060;2023-04-16T04:36:09;101515.00;;;8.19;92.63
6208;BME280;3137;51.550;7.060;2023-04-16T04:38:36;101527.38;;;8.21;93.00
6208;BME280;3137;51.550;7.060;2023-04-16T04:41:02;101525.41;;;8.25;92.67
6208;BME280;3137;51.550;7.060;2023-04-16T04:43:33;101527.28;;;8.23;92.78
6208;BME280;3137;51.550;7.060;2023-04-16T04:45:59;101528.06;;;8.25;92.59
6208;BME280;3137;51.550;7.060;2023-04-16T04:48:27;101528.63;;;8.31;92.17
6208;BME280;3137;51.550;7.060;2023-04-16T04:50:54;101531.53;;;8.27;92.61
6208;BME280;3137;51.550;7.060;2023-04-16T04:53:20;101532.00;;;8.35;92.41
6208;BME280;3137;51.550;7.060;2023-04-16T04:55:47;101539.53;;;8.27;91.95
6208;BME280;3137;51.550;7.060;2023-04-16T04:58:19;101544.06;;;8.25;92.40
6208;BME280;3137;51.550;7.060;2023-04-16T05:00:45;101541.25;;;8.28;92.33
6208;BME280;3137;51.550;7.060;2023-04-16T05:03:18;101538.81;;;8.23;92.17
6208;BME280;3137;51.550;7.060;2023-04-16T05:05:45;101545.94;;;8.23;92.13
6208;BME280;3137;51.550;7.060;2023-04-16T05:08:11;101544.94;;;8.25;91.83
6208;BME280;3137;51.550;7.060;2023-04-16T05:10:38;101548.72;;;8.21;92.34
6208;BME280;3137;51.550;7.060;2023-04-16T05:13:04;101545.88;;;8.24;92.26
6208;BME280;3137;51.550;7.060;2023-04-16T05:15:30;101551.28;;;8.23;91.72
6208;BME280;3137;51.550;7.060;2023-04-16T05:17:57;101552.00;;;8.26;91.55
6208;BME280;3137;51.550;7.060;2023-04-16T05:20:23;101552.81;;;8.28;91.57
6208;BME280;3137;51.550;7.060;2023-04-16T05:22:50;101551.06;;;8.27;91.16
6208;BME280;3137;51.550;7.060;2023-04-16T05:25:16;101556.19;;;8.32;91.16
6208;BME280;3137;51.550;7.060;2023-04-16T05:27:43;101565.34;;;8.26;90.80
6208;BME280;3137;51.550;7.060;2023-04-16T05:30:09;101567.13;;;8.26;90.91
6208;BME280;3137;51.550;7.060;2023-04-16T05:32:38;101562.69;;;8.26;90.96
6208;BME280;3137;51.550;7.060;2023-04-16T05:35:04;101568.16;;;8.23;91.07
6208;BME280;3137;51.550;7.060;2023-04-16T05:37:31;101572.47;;;8.26;90.54
6208;BME280;3137;51.550;7.060;2023-04-16T05:39:57;101573.38;;;8.26;90.60
6208;BME280;3137;51.550;7.060;2023-04-16T05:42:24;101582.16;;;8.28;90.35
6208;BME280;3137;51.550;7.060;2023-04-16T05:44:50;101575.25;;;8.24;90.97
6208;BME280;3137;51.550;7.060;2023-04-16T05:47:17;101577.13;;;8.22;90.96
6208;BME280;3137;51.550;7.060;2023-04-16T05:49:44;101593.91;;;8.24;90.65
6208;BME280;3137;51.550;7.060;2023-04-16T05:52:10;101586.72;;;8.26;90.44
6208;BME280;3137;51.550;7.060;2023-04-16T05:54:37;101594.78;;;8.25;90.63
6208;BME280;3137;51.550;7.060;2023-04-16T05:57:03;101592.03;;;8.26;90.47
6208;BME280;3137;51.550;7.060;2023-04-16T05:59:29;101597.88;;;8.35;90.03
6208;BME280;3137;51.550;7.060;2023-04-16T06:01:56;101597.63;;;8.39;90.08
6208;BME280;3137;51.550;7.060;2023-04-16T06:04:23;101598.53;;;8.40;90.23
6208;BME280;3137;51.550;7.060;2023-04-16T06:06:49;101606.66;;;8.37;90.10
6208;BME280;3137;51.550;7.060;2023-04-16T06:09:16;101611.94;;;8.38;90.72
6208;BME280;3137;51.550;7.060;2023-04-16T06:11:43;101601.94;;;8.43;89.96
6208;BME280;3137;51.550;7.060;2023-04-16T06:14:09;101603.88;;;8.40;90.17
6208;BME280;3137;51.550;7.060;2023-04-16T06:16:36;101603.75;;;8.43;90.36
6208;BME280;3137;51.550;7.060;2023-04-16T06:19:02;101605.47;;;8.44;90.07
6208;BME280;3137;51.550;7.060;2023-04-16T06:21:29;101609.78;;;8.46;89.75
6208;BME280;3137;51.550;7.060;2023-04-16T06:23:56;101605.31;;;8.47;89.80
6208;BME280;3137;51.550;7.060;2023-04-16T06:26:23;101615.75;;;8.51;89.13
6208;BME280;3137;51.550;7.060;2023-04-16T06:28:49;101614.84;;;8.52;89.16
6208;BME280;3137;51.550;7.060;2023-04-16T06:31:16;101620.09;;;8.54;89.68
6208;BME280;3137;51.550;7.060;2023-04-16T06:33:42;101619.84;;;8.59;89.53
6208;BME280;3137;51.550;7.060;2023-04-16T06:36:08;101621.03;;;8.53;89.18
6208;BME280;3137;51.550;7.060;2023-04-16T06:38:36;101620.25;;;8.51;89.78
6208;BME280;3137;51.550;7.060;2023-04-16T06:41:03;101627.97;;;8.57;89.57
6208;BME280;3137;51.550;7.060;2023-04-16T06:43:29;101627.88;;;8.59;89.39
6208;BME280;3137;51.550;7.060;2023-04-16T06:45:57;101627.72;;;8.62;88.83
6208;BME280;3137;51.550;7.060;2023-04-16T06:48:24;101634.84;;;8.61;88.92
6208;BME280;3137;51.550;7.060;2023-04-16T06:50:50;101634.00;;;8.61;89.52
6208;BME280;3137;51.550;7.060;2023-04-16T06:53:16;101637.25;;;8.67;89.31
6208;BME280;3137;51.550;7.060;2023-04-16T06:55:43;101637.03;;;8.72;88.68
6208;BME280;3137;51.550;7.060;2023-04-16T06:58:09;101638.56;;;8.76;87.65
6208;BME280;3137;51.550;7.060;2023-04-16T07:00:35;101636.69;;;8.78;87.40
6208;BME280;3137;51.550;7.060;2023-04-16T07:03:02;101640.31;;;8.77;87.66
6208;BME280;3137;51.550;7.060;2023-04-16T07:05:29;101643.84;;;8.78;88.34
6208;BME280;3137;51.550;7.060;2023-04-16T07:07:55;101638.69;;;8.75;88.14
6208;BME280;3137;51.550;7.060;2023-04-16T07:10:22;101637.50;;;8.80;88.10
6208;BME280;3137;51.550;7.060;2023-04-16T07:12:49;101632.88;;;8.84;88.13
6208;BME280;3137;51.550;7.060;2023-04-16T07:15:15;101644.31;;;8.86;87.96
6208;BME280;3137;51.550;7.060;2023-04-16T07:17:41;101645.22;;;8.86;88.06
6208;BME280;3137;51.550;7.060;2023-04-16T07:20:08;101642.00;;;8.97;88.13
6208;BME280;3137;51.550;7.060;2023-04-16T07:22:34;101647.03;;;9.03;87.11
6208;BME280;3137;51.550;7.060;2023-04-16T07:25:01;101653.25;;;9.04;87.43
6208;BME280;3137;51.550;7.060;2023-04-16T07:27:28;101658.19;;;9.11;86.43
6208;BME280;3137;51.550;7.060;2023-04-16T07:29:54;101657.88;;;9.18;86.56
6208;BME280;3137;51.550;7.060;2023-04-16T07:32:21;101661.59;;;9.15;85.93
6208;BME280;3137;51.550;7.060;2023-04-16T07:34:47;101653.41;;;9.18;86.33
6208;BME280;3137;51.550;7.060;2023-04-16T07:37:14;101662.69;;;9.11;85.63
6208;BME280;3137;51.550;7.060;2023-04-16T07:39:40;101658.19;;;9.11;85.72
6208;BME280;3137;51.550;7.060;2023-04-16T07:42:07;101667.72;;;9.17;85.53
6208;BME280;3137;51.550;7.060;2023-04-16T07:44:33;101675.34;;;9.25;85.54
6208;BME280;3137;51.550;7.060;2023-04-16T07:46:59;101669.75;;;9.29;85.13
6208;BME280;3137;51.550;7.060;2023-04-16T07:49:28;101676.59;;;9.35;85.39
6208;BME280;3137;51.550;7.060;2023-04-16T07:51:54;101675.50;;;9.39;85.64
6208;BME280;3137;51.550;7.060;2023-04-16T07:54:20;101681.63;;;9.41;85.73
6208;BME280;3137;51.550;7.060;2023-04-16T07:56:47;101679.34;;;9.51;85.73
6208;BME280;3137;51.550;7.060;2023-04-16T07:59:13;101680.22;;;9.51;84.90
6208;BME280;3137;51.550;7.060;2023-04-16T08:01:51;101683.03;;;9.66;85.10
6208;BME280;3137;51.550;7.060;2023-04-16T08:04:17;101683.56;;;9.72;84.93
6208;BME280;3137;51.550;7.060;2023-04-16T08:06:50;101685.66;;;9.83;85.01
6208;BME280;3137;51.550;7.060;2023-04-16T08:09:18;101689.50;;;9.95;85.28
6208;BME280;3137;51.550;7.060;2023-04-16T08:11:44;101690.97;;;10.00;84.45
6208;BME280;3137;51.550;7.060;2023-04-16T08:14:11;101692.28;;;10.09;83.65
6208;BME280;3137;51.550;7.060;2023-04-16T08:16:37;101698.19;;;10.16;83.03
6208;BME280;3137;51.550;7.060;2023-04-16T08:19:05;101706.03;;;10.19;82.65
6208;BME280;3137;51.550;7.060;2023-04-16T08:21:32;101703.44;;;10.17;82.29
6208;BME280;3137;51.550;7.060;2023-04-16T08:23:59;101700.44;;;10.23;81.56
6208;BME280;3137;51.550;7.060;2023-04-16T08:26:25;101701.00;;;10.30;81.53
6208;BME280;3137;51.550;7.060;2023-04-16T08:28:52;101704.72;;;10.43;82.09
6208;BME280;3137;51.550;7.060;2023-04-16T08:31:18;101707.81;;;10.36;80.69
6208;BME280;3137;51.550;7.060;2023-04-16T08:33:45;101704.03;;;10.40;81.28
6208;BME280;3137;51.550;7.060;2023-04-16T08:36:11;101704.91;;;10.40;80.74
6208;BME280;3137;51.550;7.060;2023-04-16T08:38:38;101707.31;;;10.45;81.16
6208;BME280;3137;51.550;7.060;2023-04-16T08:41:05;101715.97;;;10.50;80.55
6208;BME280;3137;51.550;7.060;2023-04-16T08:43:36;101718.13;;;10.59;80.86
6208;BME280;3137;51.550;7.060;2023-04-16T08:46:04;101718.22;;;10.74;80.85
6208;BME280;3137;51.550;7.060;2023-04-16T08:48:32;101725.81;;;10.81;80.80
6208;BME280;3137;51.550;7.060;2023-04-16T08:51:00;101722.22;;;10.82;79.96
6208;BME280;3137;51.550;7.060;2023-04-16T08:53:32;101725.56;;;10.86;79.21
6208;BME280;3137;51.550;7.060;2023-04-16T08:56:03;101734.19;;;10.91;79.25
6208;BME280;3137;51.550;7.060;2023-04-16T08:58:31;101743.88;;;10.94;79.53
6208;BME280;3137;51.550;7.060;2023-04-16T09:01:02;101732.91;;;10.98;78.43
6208;BME280;3137;51.550;7.060;2023-04-16T09:03:30;101736.81;;;10.93;78.24
6208;BME280;3137;51.550;7.060;2023-04-16T09:06:00;101741.19;;;10.94;79.44
6208;BME280;3137;51.550;7.060;2023-04-16T09:08:28;101739.13;;;10.99;78.91
6208;BME280;3137;51.550;7.060;2023-04-16T09:10:55;101749.41;;;11.06;78.49
6208;BME280;3137;51.550;7.060;2023-04-16T09:13:22;101748.38;;;11.09;77.79
6208;BME280;3137;51.550;7.060;2023-04-16T09:15:54;101744.66;;;11.12;77.40
6208;BME280;3137;51.550;7.060;2023-04-16T09:18:23;101749.16;;;11.11;77.19
6208;BME280;3137;51.550;7.060;2023-04-16T09:20:50;101757.63;;;11.19;78.10
6208;BME280;3137;51.550;7.060;2023-04-16T09:23:17;101755.97;;;11.17;77.77
6208;BME280;3137;51.550;7.060;2023-04-16T09:25:43;101759.22;;;11.38;75.63
6208;BME280;3137;51.550;7.060;2023-04-16T09:28:09;101756.16;;;11.44;75.72
6208;BME280;3137;51.550;7.060;2023-04-16T09:30:36;101755.44;;;11.56;73.89
6208;BME280;3137;51.550;7.060;2023-04-16T09:33:18;101759.09;;;11.55;73.58
6208;BME280;3137;51.550;7.060;2023-04-16T09:35:50;101757.31;;;11.70;74.34
6208;BME280;3137;51.550;7.060;2023-04-16T09:38:18;101754.75;;;11.68;73.16
6208;BME280;3137;51.550;7.060;2023-04-16T09:40:44;101771.78;;;11.67;72.88
6208;BME280;3137;51.550;7.060;2023-04-16T09:43:14;101769.88;;;11.69;73.55
6208;BME280;3137;51.550;7.060;2023-04-16T09:45:50;101773.78;;;11.64;73.23
6208;BME280;3137;51.550;7.060;2023-04-16T09:48:28;101763.34;;;11.59;72.41
6208;BME280;3137;51.550;7.060;2023-04-16T09:50:55;101768.31;;;11.65;74.02
6208;BME280;3137;51.550;7.060;2023-04-16T09:53:26;101765.94;;;11.75;73.55
6208;BME280;3137;51.550;7.060;2023-04-16T09:56:02;101772.16;;;11.91;74.12
6208;BME280;3137;51.550;7.060;2023-04-16T09:58:28;101766.22;;;12.01;74.85
6208;BME280;3137;51.550;7.060;2023-04-16T10:01:01;101763.84;;;12.10;73.08
6208;BME280;3137;51.550;7.060;2023-04-16T10:03:32;101762.00;;;12.11;73.12
6208;BME280;3137;51.550;7.060;2023-04-16T10:08:31;101775.66;;;12.37;73.38
6208;BME280;3137;51.550;7.060;2023-04-16T10:10:58;101772.75;;;12.40;73.45
6208;BME280;3137;51.550;7.060;2023-04-16T10:13:24;101777.28;;;12.39;73.08
6208;BME280;3137;51.550;7.060;2023-04-16T10:15:56;101783.34;;;12.28;72.12
6208;BME280;3137;51.550;7.060;2023-04-16T10:18:23;101772.88;;;12.24;72.43
6208;BME280;3137;51.550;7.060;2023-04-16T10:20:50;101776.41;;;12.10;72.46
6208;BME280;3137;51.550;7.060;2023-04-16T10:23:18;101781.09;;;12.06;72.86
6208;BME280;3137;51.550;7.060;2023-04-16T10:25:47;101785.72;;;12.04;72.35
6208;BME280;3137;51.550;7.060;2023-04-16T10:28:15;101786.16;;;11.97;74.11
6208;BME280;3137;51.550;7.060;2023-04-16T10:30:46;101788.44;;;11.88;73.95
6208;BME280;3137;51.550;7.060;2023-04-16T10:33:20;101789.88;;;11.94;74.73
6208;BME280;3137;51.550;7.060;2023-04-16T10:35:47;101779.44;;;12.04;75.71
6208;BME280;3137;51.550;7.060;2023-04-16T10:38:32;101784.47;;;12.10;74.71
6208;BME280;3137;51.550;7.060;2023-04-16T10:41:00;101789.66;;;12.27;74.88
6208;BME280;3137;51.550;7.060;2023-04-16T10:43:29;101788.22;;;12.36;74.14
6208;BME280;3137;51.550;7.060;2023-04-16T10:45:56;101789.38;;;12.46;72.19
6208;BME280;3137;51.550;7.060;2023-04-16T10:48:23;101782.44;;;12.42;73.36
6208;BME280;3137;51.550;7.060;2023-04-16T10:50:56;101783.22;;;12.44;72.47
6208;BME280;3137;51.550;7.060;2023-04-16T10:53:25;101783.63;;;12.38;72.51
6208;BME280;3137;51.550;7.060;2023-04-16T10:56:09;101778.81;;;12.43;72.65
6208;BME280;3137;51.550;7.060;2023-04-16T10:58:37;101784.19;;;12.43;70.31
6208;BME280;3137;51.550;7.060;2023-04-16T11:01:11;101782.16;;;12.47;68.74
6208;BME280;3137;51.550;7.060;2023-04-16T11:03:43;101777.00;;;12.58;69.74
6208;BME280;3137;51.550;7.060;2023-04-16T11:06:11;101777.47;;;12.65;69.35
6208;BME280;3137;51.550;7.060;2023-04-16T11:08:45;101774.38;;;12.56;69.71
6208;BME280;3137;51.550;7.060;2023-04-16T11:11:20;101768.13;;;12.70;68.60
6208;BME280;3137;51.550;7.060;2023-04-16T11:13:47;101772.47;;;12.73;68.87
6208;BME280;3137;51.550;7.060;2023-04-16T11:16:15;101766.84;;;12.90;68.78
6208;BME280;3137;51.550;7.060;2023-04-16T11:18:44;101770.97;;;12.96;68.89
6208;BME280;3137;51.550;7.060;2023-04-16T11:21:17;101766.63;;;13.08;67.96
6208;BME280;3137;51.550;7.060;2023-04-16T11:23:52;101772.44;;;13.14;66.57
6208;BME280;3137;51.550;7.060;2023-04-16T11:26:28;101774.09;;;13.17;66.29
6208;BME280;3137;51.550;7.060;2023-04-16T11:28:58;101763.09;;;13.34;67.41
6208;BME280;3137;51.550;7.060;2023-04-16T11:31:25;101763.13;;;13.47;67.27
6208;BME280;3137;51.550;7.060;2023-04-16T11:33:54;101766.81;;;13.46;64.26
6208;BME280;3137;51.550;7.060;2023-04-16T11:36:21;101769.50;;;13.46;65.92
6208;BME280;3137;51.550;7.060;2023-04-16T11:38:47;101773.91;;;13.47;66.06
6208;BME280;3137;51.550;7.060;2023-04-16T11:41:18;101765.38;;;13.40;65.78
6208;BME280;3137;51.550;7.060;2023-04-16T11:43:45;101780.41;;;13.30;67.16
6208;BME280;3137;51.550;7.060;2023-04-16T11:46:11;101777.22;;;13.24;67.56
6208;BME280;3137;51.550;7.060;2023-04-16T11:48:53;101775.78;;;13.32;67.37
6208;BME280;3137;51.550;7.060;2023-04-16T11:51:23;101779.81;;;13.25;68.07
6208;BME280;3137;51.550;7.060;2023-04-16T11:53:50;101777.72;;;13.30;68.02
6208;BME280;3137;51.550;7.060;2023-04-16T11:56:29;101779.63;;;13.28;66.81
6208;BME280;3137;51.550;7.060;2023-04-16T11:59:06;101779.72;;;13.27;66.60
6208;BME280;3137;51.550;7.060;2023-04-16T12:01:38;101786.06;;;13.26;65.89
6208;BME280;3137;51.550;7.060;2023-04-16T12:04:05;101783.97;;;13.16;67.41
6208;BME280;3137;51.550;7.060;2023-04-16T12:06:32;101786.88;;;13.13;67.56
6208;BME280;3137;51.550;7.060;2023-04-16T12:08:59;101789.16;;;13.19;67.84
6208;BME280;3137;51.550;7.060;2023-04-16T12:11:41;101790.97;;;13.19;67.74
6208;BME280;3137;51.550;7.060;2023-04-16T12:14:09;101779.66;;;13.14;67.90
6208;BME280;3137;51.550;7.060;2023-04-16T12:16:36;101783.31;;;13.13;67.05
6208;BME280;3137;51.550;7.060;2023-04-16T12:19:03;101785.16;;;13.12;67.57
6208;BME280;3137;51.550;7.060;2023-04-16T12:21:44;101781.16;;;13.05;66.20
6208;BME280;3137;51.550;7.060;2023-04-16T12:24:12;101791.50;;;12.97;66.44
6208;BME280;3137;51.550;7.060;2023-04-16T12:26:41;101787.00;;;12.97;66.33
6208;BME280;3137;51.550;7.060;2023-04-16T12:29:14;101786.44;;;12.92;65.23
6208;BME280;3137;51.550;7.060;2023-04-16T12:31:41;101784.81;;;12.90;65.55
6208;BME280;3137;51.550;7.060;2023-04-16T12:34:08;101784.94;;;12.88;66.20
6208;BME280;3137;51.550;7.060;2023-04-16T12:36:36;101792.69;;;12.93;67.43
6208;BME280;3137;51.550;7.060;2023-04-16T12:39:02;101793.34;;;12.96;65.69
6208;BME280;3137;51.550;7.060;2023-04-16T12:41:28;101791.44;;;12.98;66.52
6208;BME280;3137;51.550;7.060;2023-04-16T12:44:09;101784.59;;;13.07;66.15
6208;BME280;3137;51.550;7.060;2023-04-16T12:46:41;101794.09;;;13.13;66.64
6208;BME280;3137;51.550;7.060;2023-04-16T12:49:09;101790.66;;;12.96;67.44
6208;BME280;3137;51.550;7.060;2023-04-16T12:51:37;101787.97;;;12.96;67.94
6208;BME280;3137;51.550;7.060;2023-04-16T12:54:04;101790.31;;;12.88;68.33
6208;BME280;3137;51.550;7.060;2023-04-16T12:56:33;101790.03;;;12.79;68.30
6208;BME280;3137;51.550;7.060;2023-04-16T12:58:59;101796.28;;;12.79;68.48
6208;BME280;3137;51.550;7.060;2023-04-16T13:01:25;101798.75;;;12.82;69.12
6208;BME280;3137;51.550;7.060;2023-04-16T13:03:52;101791.47;;;12.84;68.99
6208;BME280;3137;51.550;7.060;2023-04-16T13:06:19;101790.13;;;12.77;69.11
6208;BME280;3137;51.550;7.060;2023-04-16T13:08:46;101788.78;;;12.70;69.18
6208;BME280;3137;51.550;7.060;2023-04-16T13:11:12;101792.91;;;12.61;69.83
6208;BME280;3137;51.550;7.060;2023-04-16T13:13:38;101785.41;;;12.66;68.96
6208;BME280;3137;51.550;7.060;2023-04-16T13:16:05;101783.13;;;12.74;69.65
6208;BME280;3137;51.550;7.060;2023-04-16T13:18:34;101784.94;;;12.88;69.60
6208;BME280;3137;51.550;7.060;2023-04-16T13:21:04;101788.44;;;13.03;69.52
6208;BME280;3137;51.550;7.060;2023-04-16T13:23:31;101785.28;;;13.24;69.60